Time;durP1;ratioP1;P1;durP2;ratioP2;P2;SDS_P1;SDS_P2;PMS_P1;PMS_P2;Temp;Humidity;BMP_temperature;BMP_pressure;BME280_temperature;BME280_humidity;BME280_pressure;Samples;Min_cycle;Max_cycle;Signal;HPM_P1;HPM_P2
2022/06/16 00:00:55;;;;;;;8.02;5.90;;;;;;;;;;5095770;28;20059;-67
2022/06/16 00:03:23;;;;;;;8.35;6.07;;;;;;;;;;5095810;28;20110;-67
2022/06/16 00:05:51;;;;;;;9.18;6.60;;;;;;;;;;5095756;28;20126;-65
2022/06/16 00:08:19;;;;;;;8.48;5.95;;;;;;;;;;5095504;28;20079;-65
2022/06/16 00:13:35;;;;;;;8.00;6.10;;;;;;;;;;5095381;28;20085;-68
2022/06/16 00:16:03;;;;;;;9.32;6.50;;;;;;;;;;5095574;28;20039;-67
2022/06/16 00:18:31;;;;;;;10.90;6.22;;;;;;;;;;5095504;28;20044;-67
2022/06/16 00:20:59;;;;;;;9.13;6.45;;;;;;;;;;5095349;28;20042;-67
2022/06/16 00:23:26;;;;;;;8.48;6.22;;;;;;;;;;5095341;28;20048;-68
2022/06/16 00:25:54;;;;;;;10.75;6.32;;;;;;;;;;5095407;28;20128;-67
2022/06/16 00:28:22;;;;;;;7.65;6.57;;;;;;;;;;5095361;28;20040;-67
2022/06/16 00:30:49;;;;;;;8.95;6.45;;;;;;;;;;5095170;28;20420;-67
2022/06/16 00:33:17;;;;;;;8.55;6.03;;;;;;;;;;5095036;28;20052;-67
2022/06/16 00:35:45;;;;;;;8.27;6.38;;;;;;;;;;5077024;28;20511;-67
2022/06/16 00:38:12;;;;;;;8.10;6.32;;;;;;;;;;5077050;28;20048;-67
2022/06/16 00:40:40;;;;;;;9.27;6.45;;;;;;;;;;5076721;28;20044;-67
2022/06/16 00:43:09;;;;;;;10.68;7.43;;;;;;;;;;5077258;28;20090;-67
2022/06/16 00:45:54;;;;;;;9.27;7.30;;;;;;;;;;5076851;28;20556;-68
2022/06/16 00:48:21;;;;;;;8.90;6.63;;;;;;;;;;5076716;28;20040;-68
2022/06/16 00:50:52;;;;;;;7.50;6.38;;;;;;;;;;5076688;28;20040;-68
2022/06/16 00:53:19;;;;;;;8.52;6.70;;;;;;;;;;5076473;28;20066;-68
2022/06/16 00:55:48;;;;;;;10.15;6.80;;;;;;;;;;5094754;28;20113;-68
2022/06/16 00:58:16;;;;;;;9.10;6.55;;;;;;;;;;5076543;28;20044;-67
2022/06/16 01:00:47;;;;;;;8.77;6.72;;;;;;;;;;5094686;28;20135;-68
2022/06/16 01:04:51;;;;;;;11.75;7.07;;;;;;;;;;5076464;28;20156;-68
2022/06/16 01:06:16;;;;;;;11.45;6.80;;;;;;;;;;5076435;28;20454;-68
2022/06/16 01:08:44;;;;;;;12.48;7.10;;;;;;;;;;5076351;28;20401;-68
2022/06/16 01:13:41;;;;;;;12.10;7.32;;;;;;;;;;5076230;28;20051;-68
2022/06/16 01:14:06;;;;;;;12.23;7.20;;;;;;;;;;5094626;28;20044;-68
2022/06/16 01:16:37;;;;;;;10.70;6.97;;;;;;;;;;5076362;28;20503;-68
2022/06/16 01:19:08;;;;;;;10.55;6.78;;;;;;;;;;5094372;28;20115;-68
2022/06/16 01:21:45;;;;;;;13.10;7.53;;;;;;;;;;5076506;28;20044;-68
2022/06/16 01:24:34;;;;;;;10.98;7.85;;;;;;;;;;5076164;28;20051;-68
2022/06/16 01:27:21;;;;;;;11.07;7.40;;;;;;;;;;5076013;28;20036;-68
2022/06/16 01:29:48;;;;;;;10.75;8.00;;;;;;;;;;5075988;28;20451;-68
2022/06/16 01:32:16;;;;;;;11.27;7.25;;;;;;;;;;5075602;28;20416;-68
2022/06/16 01:34:44;;;;;;;13.88;8.20;;;;;;;;;;5075711;28;20066;-68
2022/06/16 01:37:33;;;;;;;10.70;7.65;;;;;;;;;;5075817;28;20056;-68
2022/06/16 01:40:19;;;;;;;11.40;7.15;;;;;;;;;;5093864;28;20040;-68
2022/06/16 01:42:54;;;;;;;11.38;7.57;;;;;;;;;;5075818;28;20036;-68
2022/06/16 01:45:27;;;;;;;11.35;7.95;;;;;;;;;;5059859;28;20412;-68
2022/06/16 01:47:57;;;;;;;10.55;7.03;;;;;;;;;;5075989;28;20528;-68
2022/06/16 01:50:31;;;;;;;12.02;7.68;;;;;;;;;;5075596;28;20040;-68
2022/06/16 01:53:05;;;;;;;11.38;7.65;;;;;;;;;;5075497;28;20105;-68
2022/06/16 01:55:36;;;;;;;11.52;7.60;;;;;;;;;;5075375;28;20068;-68
2022/06/16 01:58:07;;;;;;;10.98;7.38;;;;;;;;;;5075518;28;20048;-68
2022/06/16 02:00:35;;;;;;;12.88;7.93;;;;;;;;;;5058931;28;20135;-68
2022/06/16 02:03:09;;;;;;;9.88;7.55;;;;;;;;;;5074861;28;20048;-68
2022/06/16 02:05:43;;;;;;;13.85;7.45;;;;;;;;;;5075527;28;20396;-68
2022/06/16 02:08:16;;;;;;;12.68;8.05;;;;;;;;;;5075069;28;20439;-67
2022/06/16 02:10:59;;;;;;;8.75;7.50;;;;;;;;;;5075122;28;20554;-68
2022/06/16 02:13:28;;;;;;;10.15;7.65;;;;;;;;;;5075258;28;20076;-68
2022/06/16 02:16:05;;;;;;;11.43;7.35;;;;;;;;;;5093291;28;20036;-67
2022/06/16 02:18:39;;;;;;;10.82;7.72;;;;;;;;;;5074951;28;20054;-66
2022/06/16 02:21:12;;;;;;;10.63;7.53;;;;;;;;;;5075010;28;20047;-67
2022/06/16 02:23:41;;;;;;;12.02;8.15;;;;;;;;;;5074898;28;20494;-67
2022/06/16 02:26:08;;;;;;;11.77;7.43;;;;;;;;;;5074212;28;20127;-67
2022/06/16 02:28:53;;;;;;;11.88;7.70;;;;;;;;;;5074984;28;20578;-67
2022/06/16 02:31:32;;;;;;;12.57;7.88;;;;;;;;;;5092958;28;20093;-67
2022/06/16 02:34:17;;;;;;;11.18;7.05;;;;;;;;;;5074839;28;20040;-68
2022/06/16 02:36:44;;;;;;;11.23;7.68;;;;;;;;;;5093017;28;20040;-67
2022/06/16 02:39:23;;;;;;;10.73;6.93;;;;;;;;;;5058164;28;20047;-67
2022/06/16 02:41:54;;;;;;;10.82;7.13;;;;;;;;;;5074769;28;20036;-67
2022/06/16 02:44:28;;;;;;;11.38;7.30;;;;;;;;;;5074631;28;20450;-68
2022/06/16 02:46:59;;;;;;;9.97;7.03;;;;;;;;;;5074537;28;20052;-67
2022/06/16 02:49:33;;;;;;;9.15;7.30;;;;;;;;;;5074601;28;20773;-68
2022/06/16 02:52:10;;;;;;;11.02;7.30;;;;;;;;;;5074838;28;20375;-67
2022/06/16 02:54:50;;;;;;;10.43;6.85;;;;;;;;;;5074492;28;20056;-67
2022/06/16 02:57:17;;;;;;;12.02;7.35;;;;;;;;;;5074641;28;20097;-67
2022/06/16 02:59:47;;;;;;;12.43;7.07;;;;;;;;;;5074550;28;20040;-67
2022/06/16 03:02:20;;;;;;;11.38;7.68;;;;;;;;;;5074529;28;20073;-67
2022/06/16 03:04:51;;;;;;;10.55;7.63;;;;;;;;;;5074568;28;20811;-67
2022/06/16 03:07:20;;;;;;;9.77;7.85;;;;;;;;;;5074361;28;20044;-68
2022/06/16 03:09:58;;;;;;;11.68;8.40;;;;;;;;;;5070942;28;20078;-68
2022/06/16 03:12:26;;;;;;;15.93;10.70;;;;;;;;;;5070898;28;20044;-67
2022/06/16 03:14:53;;;;;;;16.80;10.25;;;;;;;;;;5072046;28;20036;-67
2022/06/16 03:17:29;;;;;;;15.68;10.00;;;;;;;;;;5075180;28;20044;-68
2022/06/16 03:19:56;;;;;;;16.17;9.68;;;;;;;;;;5075307;28;20148;-68
2022/06/16 03:22:24;;;;;;;13.63;10.07;;;;;;;;;;5074893;28;20048;-68
2022/06/16 03:24:52;;;;;;;16.20;10.30;;;;;;;;;;5075093;28;20098;-67
2022/06/16 03:27:19;;;;;;;13.25;10.85;;;;;;;;;;5058372;28;20038;-67
2022/06/16 03:29:47;;;;;;;17.35;11.88;;;;;;;;;;5076271;28;20052;-67
2022/06/16 03:32:15;;;;;;;14.82;10.50;;;;;;;;;;5074857;28;20166;-67
2022/06/16 03:34:43;;;;;;;16.70;9.63;;;;;;;;;;5074558;28;20051;-67
2022/06/16 03:37:14;;;;;;;14.32;9.00;;;;;;;;;;5074722;28;20037;-67
2022/06/16 03:39:46;;;;;;;16.13;9.35;;;;;;;;;;5074800;28;20044;-68
2022/06/16 03:42:15;;;;;;;15.98;9.65;;;;;;;;;;5074522;28;20040;-67
2022/06/16 03:44:43;;;;;;;16.83;10.13;;;;;;;;;;5073034;28;20140;-68
2022/06/16 03:47:14;;;;;;;13.77;9.10;;;;;;;;;;5072599;28;20041;-68
2022/06/16 03:49:42;;;;;;;15.57;9.77;;;;;;;;;;5074549;28;20044;-67
2022/06/16 03:52:10;;;;;;;15.30;8.98;;;;;;;;;;5074490;28;20444;-67
2022/06/16 03:54:45;;;;;;;13.30;10.32;;;;;;;;;;5073533;28;20044;-67
2022/06/16 03:57:13;;;;;;;17.65;12.00;;;;;;;;;;5074161;28;20127;-67
2022/06/16 03:59:41;;;;;;;13.75;10.32;;;;;;;;;;5074368;28;20040;-67
2022/06/16 04:02:20;;;;;;;14.05;9.63;;;;;;;;;;5073768;28;20048;-68
2022/06/16 04:04:48;;;;;;;11.57;8.60;;;;;;;;;;5057752;28;20398;-71
2022/06/16 04:07:16;;;;;;;11.70;8.13;;;;;;;;;;5074239;28;20036;-68
2022/06/16 04:10:02;;;;;;;14.20;8.13;;;;;;;;;;5071766;28;20410;-68
2022/06/16 04:12:35;;;;;;;13.35;9.40;;;;;;;;;;5073999;28;20042;-68
2022/06/16 04:15:04;;;;;;;16.13;9.50;;;;;;;;;;5073907;28;20052;-68
2022/06/16 04:17:31;;;;;;;11.23;8.63;;;;;;;;;;5073765;28;20037;-68
2022/06/16 04:20:13;;;;;;;14.18;9.70;;;;;;;;;;5073851;28;20048;-68
2022/06/16 04:22:55;;;;;;;11.25;8.23;;;;;;;;;;5090485;28;20052;-68
2022/06/16 04:25:30;;;;;;;13.75;9.23;;;;;;;;;;5073788;28;20501;-70
2022/06/16 04:28:08;;;;;;;11.80;9.43;;;;;;;;;;5071552;28;20670;-68
2022/06/16 04:30:43;;;;;;;14.27;8.40;;;;;;;;;;5071728;28;20083;-68
2022/06/16 04:33:13;;;;;;;11.15;8.20;;;;;;;;;;5070899;28;20754;-68
2022/06/16 04:35:41;;;;;;;11.45;7.03;;;;;;;;;;5071793;28;20083;-67
2022/06/16 04:38:12;;;;;;;9.80;6.63;;;;;;;;;;5071739;28;20052;-68
2022/06/16 04:40:41;;;;;;;9.93;6.85;;;;;;;;;;5071735;28;20044;-68
2022/06/16 04:43:15;;;;;;;10.27;7.00;;;;;;;;;;5072862;28;20064;-68
2022/06/16 04:45:49;;;;;;;8.25;7.10;;;;;;;;;;5073534;28;20044;-68
2022/06/16 04:48:20;;;;;;;10.88;7.15;;;;;;;;;;5090365;28;20131;-68
2022/06/16 04:50:48;;;;;;;14.75;7.70;;;;;;;;;;5090270;28;20175;-68
2022/06/16 04:53:18;;;;;;;9.07;7.40;;;;;;;;;;5090039;28;20513;-68
2022/06/16 04:56:12;;;;;;;9.70;7.40;;;;;;;;;;5072169;28;20059;-68
2022/06/16 04:58:44;;;;;;;10.45;7.07;;;;;;;;;;5073070;28;20079;-68
2022/06/16 05:01:41;;;;;;;9.18;5.85;;;;;;;;;;5065405;28;20131;-68
2022/06/16 05:04:37;;;;;;;7.80;6.13;;;;;;;;;;5050854;28;20059;-68
2022/06/16 05:07:27;;;;;;;8.55;6.10;;;;;;;;;;5090022;28;20494;-68
2022/06/16 05:10:13;;;;;;;8.98;6.40;;;;;;;;;;5093828;28;20148;-68
2022/06/16 05:13:04;;;;;;;12.45;6.07;;;;;;;;;;5074658;28;20566;-68
2022/06/16 05:16:01;;;;;;;8.43;6.13;;;;;;;;;;5021904;28;20153;-68
2022/06/16 05:18:58;;;;;;;8.90;6.40;;;;;;;;;;5009718;28;20554;-68
2022/06/16 05:21:44;;;;;;;12.05;7.28;;;;;;;;;;5094279;28;20113;-68
2022/06/16 05:24:30;;;;;;;10.52;7.18;;;;;;;;;;5093918;28;20047;-68
2022/06/16 05:27:15;;;;;;;12.45;7.45;;;;;;;;;;5092596;28;20446;-69
2022/06/16 05:30:03;;;;;;;10.88;6.95;;;;;;;;;;5075247;28;20489;-68
2022/06/16 05:32:41;;;;;;;9.20;6.50;;;;;;;;;;5075947;28;20055;-68
2022/06/16 05:35:24;;;;;;;11.02;5.68;;;;;;;;;;5075705;28;20052;-68
2022/06/16 05:38:12;;;;;;;9.65;6.03;;;;;;;;;;5092489;28;20062;-68
2022/06/16 05:40:57;;;;;;;12.25;7.40;;;;;;;;;;5075657;28;20047;-68
2022/06/16 05:43:45;;;;;;;10.82;6.35;;;;;;;;;;5093449;28;20436;-68
2022/06/16 05:46:42;;;;;;;9.48;7.10;;;;;;;;;;5056290;28;20060;-68
2022/06/16 05:49:13;;;;;;;10.57;6.35;;;;;;;;;;5075701;28;20054;-68
2022/06/16 05:51:42;;;;;;;10.48;6.30;;;;;;;;;;5075521;28;20044;-68
2022/06/16 05:54:12;;;;;;;9.77;6.07;;;;;;;;;;5075355;28;20523;-69
2022/06/16 05:56:43;;;;;;;12.43;7.05;;;;;;;;;;5092337;28;20093;-68
2022/06/16 05:59:11;;;;;;;7.97;5.45;;;;;;;;;;5075732;28;20451;-68
2022/06/16 06:01:44;;;;;;;9.00;5.20;;;;;;;;;;5075393;28;20131;-68
2022/06/16 06:04:13;;;;;;;14.00;6.30;;;;;;;;;;5075266;28;20072;-68
2022/06/16 06:06:43;;;;;;;9.48;5.55;;;;;;;;;;5092225;28;20044;-68
2022/06/16 06:17:49;;;;;;;10.25;5.57;;;;;;;;;;5093120;28;20523;-68
2022/06/16 06:20:17;;;;;;;8.65;5.00;;;;;;;;;;5074951;28;20059;-68
2022/06/16 06:22:49;;;;;;;10.90;5.72;;;;;;;;;;5074953;28;20048;-68
2022/06/16 06:25:17;;;;;;;10.63;5.63;;;;;;;;;;5075217;28;20044;-68
2022/06/16 06:27:46;;;;;;;24.63;7.10;;;;;;;;;;5074850;28;20051;-68
2022/06/16 06:30:17;;;;;;;9.02;4.63;;;;;;;;;;5093101;28;20061;-68
2022/06/16 06:32:45;;;;;;;7.82;4.78;;;;;;;;;;5093164;28;20051;-68
2022/06/16 06:35:13;;;;;;;13.13;5.07;;;;;;;;;;5092751;28;20131;-68
2022/06/16 06:37:41;;;;;;;11.07;5.70;;;;;;;;;;5074644;28;20495;-68
2022/06/16 06:40:13;;;;;;;26.70;7.10;;;;;;;;;;5058174;28;20562;-68
2022/06/16 06:42:40;;;;;;;48.92;8.48;;;;;;;;;;5092872;28;20036;-68
2022/06/16 06:45:10;;;;;;;24.38;6.00;;;;;;;;;;5074592;28;20063;-68
2022/06/16 06:47:38;;;;;;;15.35;5.93;;;;;;;;;;5092668;28;20044;-68
2022/06/16 06:50:06;;;;;;;13.98;4.97;;;;;;;;;;5092568;28;20036;-68
2022/06/16 06:52:33;;;;;;;15.55;4.80;;;;;;;;;;5092713;28;20117;-68
2022/06/16 06:55:01;;;;;;;20.08;6.22;;;;;;;;;;5092377;28;20036;-68
2022/06/16 06:57:30;;;;;;;9.52;5.03;;;;;;;;;;5092646;28;20072;-68
2022/06/16 06:59:58;;;;;;;7.93;4.85;;;;;;;;;;5092907;28;20109;-68
2022/06/16 07:02:25;;;;;;;8.15;5.68;;;;;;;;;;5093338;28;20036;-68
2022/06/16 07:04:53;;;;;;;6.20;4.65;;;;;;;;;;5093340;28;20067;-68
2022/06/16 07:07:22;;;;;;;8.85;4.97;;;;;;;;;;5093143;28;20444;-68
2022/06/16 07:09:50;;;;;;;8.20;4.82;;;;;;;;;;5093137;28;20052;-68
2022/06/16 07:12:20;;;;;;;12.52;7.00;;;;;;;;;;5093560;28;20055;-68
2022/06/16 07:14:49;;;;;;;16.30;10.18;;;;;;;;;;5093247;28;20117;-68
2022/06/16 07:17:20;;;;;;;16.77;7.90;;;;;;;;;;5075057;28;20375;-68
2022/06/16 07:19:48;;;;;;;9.13;4.68;;;;;;;;;;5093200;28;20044;-68
2022/06/16 07:22:15;;;;;;;12.18;7.30;;;;;;;;;;5093131;28;20036;-68
2022/06/16 07:24:43;;;;;;;6.40;4.70;;;;;;;;;;5093167;28;20074;-67
2022/06/16 07:27:11;;;;;;;11.18;4.22;;;;;;;;;;5093203;28;20032;-68
2022/06/16 07:29:38;;;;;;;5.00;4.20;;;;;;;;;;5093189;28;20044;-68
2022/06/16 07:32:13;;;;;;;10.70;4.78;;;;;;;;;;5093115;28;20044;-68
2022/06/16 07:34:41;;;;;;;5.97;4.40;;;;;;;;;;5093034;28;20048;-67
2022/06/16 07:37:09;;;;;;;7.82;3.78;;;;;;;;;;5093072;28;20389;-68
2022/06/16 07:39:36;;;;;;;5.13;3.88;;;;;;;;;;5093015;28;20049;-68
2022/06/16 07:42:05;;;;;;;5.22;3.45;;;;;;;;;;5092985;28;20044;-68
2022/06/16 07:44:33;;;;;;;9.65;4.38;;;;;;;;;;5092977;28;20044;-68
2022/06/16 07:47:01;;;;;;;6.35;3.70;;;;;;;;;;5092977;28;20040;-68
2022/06/16 07:49:29;;;;;;;4.97;3.70;;;;;;;;;;5092958;28;20121;-68
2022/06/16 07:51:57;;;;;;;6.90;4.50;;;;;;;;;;5092848;28;20040;-68
2022/06/16 07:54:26;;;;;;;7.10;3.75;;;;;;;;;;5092847;28;20037;-68
2022/06/16 07:57:14;;;;;;;5.20;3.28;;;;;;;;;;5092754;28;20140;-68
2022/06/16 07:59:54;;;;;;;10.43;4.38;;;;;;;;;;5092560;28;20098;-68
2022/06/16 08:02:21;;;;;;;5.55;3.58;;;;;;;;;;5093736;28;20066;-69
2022/06/16 08:04:49;;;;;;;7.20;4.10;;;;;;;;;;5095884;28;20054;-69
2022/06/16 08:07:17;;;;;;;4.72;3.80;;;;;;;;;;5095000;28;20055;-69
2022/06/16 08:09:45;;;;;;;5.28;3.00;;;;;;;;;;5095367;28;20121;-66
2022/06/16 08:12:13;;;;;;;5.65;3.53;;;;;;;;;;5095255;28;20036;-67
2022/06/16 08:14:43;;;;;;;9.55;4.00;;;;;;;;;;5095297;28;20071;-67
2022/06/16 08:17:29;;;;;;;4.82;3.10;;;;;;;;;;5095531;28;20123;-67
2022/06/16 08:19:57;;;;;;;5.65;3.00;;;;;;;;;;5095553;28;20051;-67
2022/06/16 08:22:26;;;;;;;10.82;3.83;;;;;;;;;;5095390;28;20044;-67
2022/06/16 08:24:53;;;;;;;6.22;3.88;;;;;;;;;;5095510;28;20048;-67
2022/06/16 08:27:23;;;;;;;8.20;3.92;;;;;;;;;;5095400;28;20398;-67
2022/06/16 08:29:51;;;;;;;8.80;6.32;;;;;;;;;;5095427;28;20074;-67
2022/06/16 08:32:20;;;;;;;4.22;2.88;;;;;;;;;;5095209;28;20058;-66
2022/06/16 08:34:48;;;;;;;6.32;3.65;;;;;;;;;;5095251;28;20075;-66
2022/06/16 08:37:16;;;;;;;4.35;3.10;;;;;;;;;;5095243;28;20036;-67
2022/06/16 08:39:44;;;;;;;8.13;4.15;;;;;;;;;;5095036;28;20046;-67
2022/06/16 08:42:21;;;;;;;6.35;3.90;;;;;;;;;;5095170;28;20036;-67
2022/06/16 08:44:49;;;;;;;5.00;2.78;;;;;;;;;;5095103;28;20048;-67
2022/06/16 08:47:19;;;;;;;6.10;3.40;;;;;;;;;;5095167;28;20036;-69
2022/06/16 08:49:56;;;;;;;8.10;4.07;;;;;;;;;;5095024;28;20097;-69
2022/06/16 08:52:28;;;;;;;6.25;3.95;;;;;;;;;;5094985;28;20486;-68
2022/06/16 08:55:01;;;;;;;5.80;3.55;;;;;;;;;;5076701;28;20051;-69
2022/06/16 08:57:58;;;;;;;5.57;3.55;;;;;;;;;;5094937;28;20089;-68
2022/06/16 09:00:40;;;;;;;7.53;4.07;;;;;;;;;;5078010;28;20052;-68
2022/06/16 09:03:07;;;;;;;6.32;4.93;;;;;;;;;;5094735;28;20070;-68
2022/06/16 09:05:50;;;;;;;7.85;6.22;;;;;;;;;;5094592;28;20040;-68
2022/06/16 09:08:36;;;;;;;3.42;2.95;;;;;;;;;;5094504;28;20112;-69
2022/06/16 09:11:11;;;;;;;5.65;3.47;;;;;;;;;;5094804;28;20067;-69
2022/06/16 09:13:57;;;;;;;7.25;3.40;;;;;;;;;;5094330;28;20824;-68
2022/06/16 09:16:36;;;;;;;4.55;3.03;;;;;;;;;;5094488;28;20044;-69
2022/06/16 09:19:04;;;;;;;7.85;3.83;;;;;;;;;;5094420;28;20051;-69
2022/06/16 09:21:34;;;;;;;5.60;3.25;;;;;;;;;;5094344;28;20036;-69
2022/06/16 09:24:15;;;;;;;6.10;3.55;;;;;;;;;;5094204;28;20051;-69
2022/06/16 09:26:46;;;;;;;4.13;3.17;;;;;;;;;;5094321;28;20040;-67
2022/06/16 09:29:25;;;;;;;3.83;2.90;;;;;;;;;;5094144;28;20072;-68
2022/06/16 09:32:05;;;;;;;4.47;3.05;;;;;;;;;;5094171;28;20036;-68
2022/06/16 09:34:33;;;;;;;5.05;3.13;;;;;;;;;;5092843;28;20101;-68
2022/06/16 09:37:03;;;;;;;5.95;3.13;;;;;;;;;;5094073;28;20493;-68
2022/06/16 09:39:34;;;;;;;19.67;17.40;;;;;;;;;;5094038;28;20040;-68
2022/06/16 09:42:32;;;;;;;7.35;4.40;;;;;;;;;;5077430;28;20128;-68
2022/06/16 09:45:03;;;;;;;4.38;3.10;;;;;;;;;;5094173;28;20435;-68
2022/06/16 09:47:34;;;;;;;3.95;2.80;;;;;;;;;;5093947;28;20055;-68
2022/06/16 09:50:16;;;;;;;3.28;2.97;;;;;;;;;;5093836;28;20440;-68
2022/06/16 09:53:03;;;;;;;5.93;3.30;;;;;;;;;;5093875;28;20044;-68
2022/06/16 09:55:34;;;;;;;4.57;3.30;;;;;;;;;;5093545;28;20044;-67
2022/06/16 09:58:17;;;;;;;6.00;3.47;;;;;;;;;;5075577;28;20044;-68
2022/06/16 10:00:45;;;;;;;5.68;3.50;;;;;;;;;;5093725;28;20040;-68
2022/06/16 10:03:24;;;;;;;4.80;3.20;;;;;;;;;;5093574;28;20043;-68
2022/06/16 10:06:16;;;;;;;5.25;3.45;;;;;;;;;;5075328;28;20480;-68
2022/06/16 10:08:50;;;;;;;7.15;3.20;;;;;;;;;;5093561;28;20472;-68
2022/06/16 10:11:26;;;;;;;11.47;4.17;;;;;;;;;;5093444;28;20105;-68
2022/06/16 10:14:03;;;;;;;4.07;3.10;;;;;;;;;;5093442;28;20043;-68
2022/06/16 10:16:36;;;;;;;3.72;2.80;;;;;;;;;;5093206;28;20040;-68
2022/06/16 10:19:06;;;;;;;5.10;3.25;;;;;;;;;;5093394;28;20036;-68
2022/06/16 10:21:35;;;;;;;6.70;3.20;;;;;;;;;;5093338;28;20106;-68
2022/06/16 10:24:03;;;;;;;7.75;2.97;;;;;;;;;;5092842;28;20389;-68
2022/06/16 10:26:31;;;;;;;6.68;3.55;;;;;;;;;;5092892;28;20094;-68
2022/06/16 10:29:08;;;;;;;3.65;2.70;;;;;;;;;;5092523;28;20037;-68
2022/06/16 10:31:38;;;;;;;3.53;2.70;;;;;;;;;;5092712;28;20064;-68
2022/06/16 10:34:15;;;;;;;4.85;4.00;;;;;;;;;;5092749;28;20389;-69
2022/06/16 10:36:48;;;;;;;8.73;3.50;;;;;;;;;;5092721;28;20048;-69
2022/06/16 10:39:18;;;;;;;7.97;6.00;;;;;;;;;;5069182;28;20047;-69
2022/06/16 10:42:05;;;;;;;3.30;2.75;;;;;;;;;;5074421;28;20062;-68
2022/06/16 10:44:33;;;;;;;4.90;3.30;;;;;;;;;;5092803;28;20040;-68
2022/06/16 10:47:02;;;;;;;6.50;4.38;;;;;;;;;;5092656;28;20485;-69
2022/06/16 10:49:38;;;;;;;8.25;6.10;;;;;;;;;;5092675;28;20043;-69
2022/06/16 10:52:14;;;;;;;4.93;3.40;;;;;;;;;;5092630;28;20093;-68
2022/06/16 10:54:55;;;;;;;4.65;2.65;;;;;;;;;;5092742;28;20119;-68
2022/06/16 10:57:24;;;;;;;4.90;2.85;;;;;;;;;;5092702;28;20548;-68
2022/06/16 10:59:56;;;;;;;4.38;2.90;;;;;;;;;;5092052;28;20047;-69
2022/06/16 11:02:28;;;;;;;6.72;2.78;;;;;;;;;;5092546;28;20044;-68
2022/06/16 11:05:01;;;;;;;4.82;3.10;;;;;;;;;;5089337;28;20362;-69
2022/06/16 11:07:34;;;;;;;5.25;2.70;;;;;;;;;;5092518;28;20044;-69
2022/06/16 11:10:10;;;;;;;5.30;2.90;;;;;;;;;;5092277;28;20071;-68
2022/06/16 11:12:39;;;;;;;2.88;2.60;;;;;;;;;;5092419;28;20101;-68
2022/06/16 11:15:29;;;;;;;5.10;2.50;;;;;;;;;;5092359;28;20494;-69
2022/06/16 11:17:59;;;;;;;7.20;3.40;;;;;;;;;;5080069;28;20048;-68
2022/06/16 11:20:34;;;;;;;4.30;3.13;;;;;;;;;;5092516;28;20040;-69
2022/06/16 11:23:17;;;;;;;6.38;3.25;;;;;;;;;;5072268;28;20033;-68
2022/06/16 11:25:45;;;;;;;6.90;3.10;;;;;;;;;;5079167;28;20041;-69
2022/06/16 11:28:12;;;;;;;5.88;3.30;;;;;;;;;;5077155;28;20050;-68
2022/06/16 11:30:53;;;;;;;6.22;3.05;;;;;;;;;;5077533;28;20086;-69
2022/06/16 11:36:17;;;;;;;6.05;3.58;;;;;;;;;;5093521;28;20435;-68
2022/06/16 11:38:57;;;;;;;8.20;2.95;;;;;;;;;;5078724;28;20354;-69
2022/06/16 11:41:25;;;;;;;3.50;2.40;;;;;;;;;;5095661;28;20118;-69
2022/06/16 11:43:53;;;;;;;5.32;2.65;;;;;;;;;;5095994;28;20050;-68
2022/06/16 11:46:46;;;;;;;6.25;3.20;;;;;;;;;;5095492;28;20052;-69
2022/06/16 11:49:23;;;;;;;8.45;3.28;;;;;;;;;;5065666;28;20490;-69
2022/06/16 11:51:50;;;;;;;3.72;2.75;;;;;;;;;;5096003;28;20040;-69
2022/06/16 11:54:23;;;;;;;5.00;2.97;;;;;;;;;;5095450;28;20044;-69
2022/06/16 11:57:10;;;;;;;6.78;3.08;;;;;;;;;;5095519;28;20067;-68
2022/06/16 11:59:48;;;;;;;3.30;2.78;;;;;;;;;;5095855;28;20044;-69
2022/06/16 12:02:15;;;;;;;3.65;2.75;;;;;;;;;;5095788;28;20105;-69
2022/06/16 12:04:50;;;;;;;6.50;3.17;;;;;;;;;;5095599;28;20055;-70
2022/06/16 12:07:20;;;;;;;6.88;3.20;;;;;;;;;;5095313;28;20090;-69
2022/06/16 12:09:59;;;;;;;4.50;2.60;;;;;;;;;;5095305;28;20436;-69
2022/06/16 12:12:27;;;;;;;8.52;3.97;;;;;;;;;;5077178;28;20127;-68
2022/06/16 12:15:02;;;;;;;13.77;12.32;;;;;;;;;;5095478;28;20036;-68
2022/06/16 12:17:29;;;;;;;4.90;2.90;;;;;;;;;;5095172;28;20452;-68
2022/06/16 12:20:11;;;;;;;3.22;2.40;;;;;;;;;;5093767;28;20036;-69
2022/06/16 12:22:58;;;;;;;6.22;4.40;;;;;;;;;;5095104;28;20047;-69
2022/06/16 12:25:31;;;;;;;3.10;2.65;;;;;;;;;;5095239;28;20036;-69
2022/06/16 12:27:59;;;;;;;3.63;3.13;;;;;;;;;;5095009;28;20147;-69
2022/06/16 12:30:33;;;;;;;6.95;3.10;;;;;;;;;;5095016;28;20265;-70
2022/06/16 12:33:00;;;;;;;;;;;;;;;;;;5095674;28;20052;-69
2022/06/16 12:35:28;;;;;;;4.93;3.15;;;;;;;;;;5094901;28;19965;-69
2022/06/16 12:37:59;;;;;;;4.82;2.70;;;;;;;;;;5093487;28;20036;-69
2022/06/16 12:40:29;;;;;;;4.10;2.50;;;;;;;;;;5095068;28;20047;-68
2022/06/16 12:43:07;;;;;;;3.20;2.33;;;;;;;;;;5094620;28;20382;-69
2022/06/16 12:46:01;;;;;;;6.07;2.72;;;;;;;;;;5094776;28;20044;-69
2022/06/16 12:48:39;;;;;;;3.17;2.50;;;;;;;;;;5063865;28;20048;-69
2022/06/16 12:51:08;;;;;;;3.88;2.40;;;;;;;;;;5094554;28;20097;-69
2022/06/16 12:53:39;;;;;;;6.50;3.50;;;;;;;;;;5094758;28;20040;-69
2022/06/16 12:56:13;;;;;;;4.72;3.03;;;;;;;;;;5094811;28;20147;-69
2022/06/16 12:58:51;;;;;;;7.03;4.55;;;;;;;;;;5094563;28;20043;-70
2022/06/16 13:01:19;;;;;;;7.93;4.40;;;;;;;;;;5094329;28;20063;-69
2022/06/16 13:03:53;;;;;;;4.85;3.60;;;;;;;;;;5094413;28;20119;-69
2022/06/16 13:06:22;;;;;;;6.00;4.55;;;;;;;;;;5077033;28;20040;-71
2022/06/16 13:08:53;;;;;;;7.95;4.97;;;;;;;;;;5093850;28;20059;-68
2022/06/16 13:11:22;;;;;;;5.75;3.53;;;;;;;;;;5093905;28;20477;-68
2022/06/16 13:13:55;;;;;;;5.40;2.80;;;;;;;;;;5094233;28;20047;-68
2022/06/16 13:16:26;;;;;;;4.50;3.35;;;;;;;;;;5093910;28;20044;-68
2022/06/16 13:18:59;;;;;;;6.63;2.60;;;;;;;;;;5093994;28;20032;-68
2022/06/16 13:21:31;;;;;;;6.35;2.88;;;;;;;;;;5093939;28;20044;-68
2022/06/16 13:24:21;;;;;;;7.32;3.20;;;;;;;;;;5093909;28;20055;-67
2022/06/16 13:27:07;;;;;;;4.57;2.90;;;;;;;;;;5093656;28;20036;-67
2022/06/16 13:30:01;;;;;;;6.68;3.50;;;;;;;;;;5086697;28;20044;-68
2022/06/16 13:32:36;;;;;;;7.30;3.50;;;;;;;;;;5073160;28;20410;-67
2022/06/16 13:35:13;;;;;;;8.18;5.07;;;;;;;;;;5077686;28;20525;-68
2022/06/16 13:37:47;;;;;;;7.53;5.50;;;;;;;;;;5075824;28;20058;-67
2022/06/16 13:40:15;;;;;;;6.10;4.57;;;;;;;;;;5073660;28;20036;-67
2022/06/16 13:42:51;;;;;;;6.43;3.40;;;;;;;;;;5073751;28;20040;-68
2022/06/16 13:45:37;;;;;;;4.47;2.70;;;;;;;;;;5083337;28;20086;-69
2022/06/16 13:48:11;;;;;;;6.97;2.90;;;;;;;;;;5091740;28;20031;-68
2022/06/16 13:50:42;;;;;;;4.65;2.60;;;;;;;;;;5093135;28;20052;-67
2022/06/16 13:53:10;;;;;;;6.88;2.90;;;;;;;;;;5093182;28;20036;-69
2022/06/16 13:55:43;;;;;;;6.15;3.45;;;;;;;;;;5093293;28;20050;-69
2022/06/16 13:58:14;;;;;;;2.90;2.30;;;;;;;;;;5090751;28;20068;-69
2022/06/16 14:00:42;;;;;;;4.70;2.90;;;;;;;;;;5092186;28;20068;-67
2022/06/16 14:03:19;;;;;;;4.82;2.70;;;;;;;;;;5092879;28;20044;-67
2022/06/16 14:05:52;;;;;;;4.43;2.70;;;;;;;;;;5093010;28;20071;-67
2022/06/16 14:08:20;;;;;;;3.85;2.40;;;;;;;;;;5092385;28;20493;-69
2022/06/16 14:10:49;;;;;;;3.63;2.38;;;;;;;;;;5093288;28;20039;-68
2022/06/16 14:13:19;;;;;;;8.35;2.65;;;;;;;;;;5091699;28;20086;-68
2022/06/16 14:16:02;;;;;;;4.68;2.60;;;;;;;;;;5092597;28;20036;-68
2022/06/16 14:18:51;;;;;;;7.43;4.57;;;;;;;;;;5093492;28;20048;-68
2022/06/16 14:21:20;;;;;;;9.65;4.93;;;;;;;;;;5093150;28;20490;-68
2022/06/16 14:23:55;;;;;;;3.90;2.60;;;;;;;;;;5093019;28;20040;-68
2022/06/16 14:26:25;;;;;;;2.47;2.20;;;;;;;;;;5092808;28;20028;-68
2022/06/16 14:28:57;;;;;;;4.55;2.70;;;;;;;;;;5092225;28;20040;-68
2022/06/16 14:31:28;;;;;;;6.72;3.72;;;;;;;;;;5090839;28;20101;-68
2022/06/16 14:34:10;;;;;;;3.63;2.58;;;;;;;;;;5091078;28;20439;-69
2022/06/16 14:36:37;;;;;;;3.17;2.25;;;;;;;;;;5091158;28;20062;-68
2022/06/16 14:39:23;;;;;;;4.55;2.40;;;;;;;;;;5091002;28;20043;-68
2022/06/16 14:41:54;;;;;;;5.13;2.60;;;;;;;;;;5091387;28;20071;-68
2022/06/16 14:44:28;;;;;;;8.25;2.60;;;;;;;;;;5073975;28;20406;-68
2022/06/16 14:47:05;;;;;;;3.67;2.22;;;;;;;;;;5092914;28;20040;-68
2022/06/16 14:49:40;;;;;;;4.65;2.50;;;;;;;;;;5092677;28;20505;-69
2022/06/16 14:52:09;;;;;;;3.10;2.30;;;;;;;;;;5092825;28;20048;-68
2022/06/16 14:54:46;;;;;;;4.82;3.10;;;;;;;;;;5092726;28;20039;-68
2022/06/16 14:57:19;;;;;;;4.53;2.28;;;;;;;;;;5092666;28;20040;-68
2022/06/16 14:59:50;;;;;;;4.30;2.50;;;;;;;;;;5092754;28;20069;-68
2022/06/16 15:02:18;;;;;;;4.07;2.38;;;;;;;;;;5092637;28;20044;-68
2022/06/16 15:04:45;;;;;;;5.22;2.72;;;;;;;;;;5092518;28;20036;-68
2022/06/16 15:07:34;;;;;;;4.53;2.60;;;;;;;;;;5092807;28;20081;-68
2022/06/16 15:10:02;;;;;;;5.28;2.50;;;;;;;;;;5092400;28;20058;-68
2022/06/16 15:12:30;;;;;;;4.90;2.60;;;;;;;;;;5092344;28;20039;-69
2022/06/16 15:14:58;;;;;;;2.97;2.40;;;;;;;;;;5092558;28;20047;-68
2022/06/16 15:20:14;;;;;;;4.93;2.90;;;;;;;;;;5092457;28;20036;-70
2022/06/16 15:22:48;;;;;;;5.03;2.97;;;;;;;;;;5074388;28;20375;-69
2022/06/16 15:25:18;;;;;;;4.40;3.25;;;;;;;;;;5092580;28;20102;-69
2022/06/16 15:27:47;;;;;;;5.55;2.60;;;;;;;;;;5092625;28;20048;-69
2022/06/16 15:30:20;;;;;;;3.38;2.72;;;;;;;;;;5092582;28;20047;-69
2022/06/16 15:38:21;;;;;;;3.92;2.75;;;;;;;;;;5092360;28;20405;-69